Time;durP1;ratioP1;P1;durP2;ratioP2;P2;SDS_P1;SDS_P2;PMS_P1;PMS_P2;Temp;Humidity;BMP_temperature;BMP_pressure;BME280_temperature;BME280_humidity;BME280_pressure;Samples;Min_cycle;Max_cycle;Signal;HPM_P1;HPM_P2
2022/08/11 00:00:45;;;;;;;;;;;24.80;59.90;;;;;;5098326;28;19915;-79
2022/08/11 00:03:11;;;;;;;;;;;24.70;60.40;;;;;;5097457;28;19908;-81
2022/08/11 00:05:47;;;;;;;;;;;24.80;60.00;;;;;;5096617;28;19912;-77
2022/08/11 00:08:23;;;;;;;;;;;24.70;60.30;;;;;;5096414;28;19933;-79
2022/08/11 00:10:54;;;;;;;;;;;24.80;59.90;;;;;;5096586;28;20352;-80
2022/08/11 00:13:20;;;;;;;;;;;24.90;59.70;;;;;;5096679;28;19958;-81
2022/08/11 00:15:45;;;;;;;;;;;25.00;59.60;;;;;;5096470;28;19908;-77
2022/08/11 00:18:12;;;;;;;;;;;24.60;60.50;;;;;;5097049;28;19947;-80
2022/08/11 00:20:39;;;;;;;;;;;24.20;61.90;;;;;;5096514;28;19908;-80
2022/08/11 00:23:10;;;;;;;;;;;24.00;62.60;;;;;;5096392;28;20278;-81
2022/08/11 00:25:37;;;;;;;;;;;23.90;63.50;;;;;;5096340;28;19915;-78
2022/08/11 00:28:03;;;;;;;;;;;24.10;62.70;;;;;;5096396;28;19912;-80
2022/08/11 00:30:37;;;;;;;;;;;24.30;62.00;;;;;;5096355;28;19915;-78
2022/08/11 00:33:03;;;;;;;;;;;24.30;61.90;;;;;;5096356;28;19908;-79
2022/08/11 00:35:30;;;;;;;;;;;24.30;62.20;;;;;;5096416;28;20280;-79
2022/08/11 00:37:56;;;;;;;;;;;24.30;61.70;;;;;;5096175;28;19914;-78
2022/08/11 00:40:27;;;;;;;;;;;24.30;61.70;;;;;;5095928;28;19938;-82
2022/08/11 00:43:10;;;;;;;;;;;24.30;62.70;;;;;;5095928;28;19971;-80
2022/08/11 00:45:41;;;;;;;;;;;24.20;63.20;;;;;;5096601;28;20083;-82
2022/08/11 00:48:09;;;;;;;;;;;24.10;63.80;;;;;;5077287;28;19912;-79
2022/08/11 00:51:00;;;;;;;;;;;24.00;64.10;;;;;;5077580;28;19915;-79
2022/08/11 00:53:32;;;;;;;;;;;23.90;64.10;;;;;;5096350;28;19962;-79
2022/08/11 00:56:17;;;;;;;;;;;23.70;65.30;;;;;;5095915;28;19995;-79
2022/08/11 00:59:11;;;;;;;;;;;23.60;65.40;;;;;;5095627;28;20356;-82
2022/08/11 01:01:37;;;;;;;;;;;23.60;65.40;;;;;;5073808;28;19912;-81
2022/08/11 01:04:09;;;;;;;;;;;23.40;66.20;;;;;;5095847;28;19995;-80
2022/08/11 01:06:53;;;;;;;;;;;23.40;66.30;;;;;;5095550;28;19991;-81
2022/08/11 01:09:28;;;;;;;;;;;23.30;67.60;;;;;;5095533;28;19908;-80
2022/08/11 01:12:12;;;;;;;;;;;23.00;68.10;;;;;;5095056;28;19908;-81
2022/08/11 01:14:50;;;;;;;;;;;23.00;69.00;;;;;;5094913;28;19908;-79
2022/08/11 01:17:34;;;;;;;;;;;23.00;68.30;;;;;;5095279;28;19954;-78
2022/08/11 01:20:33;;;;;;;;;;;23.00;68.60;;;;;;5095888;28;19915;-77
2022/08/11 01:23:26;;;;;;;;;;;23.00;67.80;;;;;;5076790;28;19990;-80
2022/08/11 01:26:10;;;;;;;;;;;23.00;69.00;;;;;;5095362;28;20399;-80
2022/08/11 01:28:54;;;;;;;;;;;22.90;70.00;;;;;;5095001;28;20010;-82
2022/08/11 01:31:38;;;;;;;;;;;22.90;69.30;;;;;;5095312;28;20275;-81
2022/08/11 01:34:19;;;;;;;;;;;22.80;69.50;;;;;;5095108;28;19908;-80
2022/08/11 01:36:48;;;;;;;;;;;22.80;69.80;;;;;;5094995;28;19916;-81
2022/08/11 01:39:32;;;;;;;;;;;22.80;70.10;;;;;;5095226;28;20035;-80
2022/08/11 01:44:54;;;;;;;;;;;22.50;71.20;;;;;;5094622;28;19965;-81
2022/08/11 01:50:07;;;;;;;;;;;22.30;72.90;;;;;;5094594;28;19919;-78
2022/08/11 01:52:47;;;;;;;;;;;22.10;74.10;;;;;;5094851;28;19912;-82
2022/08/11 01:55:16;;;;;;;;;;;22.00;75.20;;;;;;5094658;28;19908;-82
2022/08/11 01:58:01;;;;;;;;;;;21.90;76.40;;;;;;5094731;28;19960;-81
2022/08/11 02:00:29;;;;;;;;;;;21.90;77.00;;;;;;5094641;28;20380;-78
2022/08/11 02:03:00;;;;;;;;;;;22.00;75.90;;;;;;5094570;28;19908;-81
2022/08/11 02:05:44;;;;;;;;;;;22.00;76.00;;;;;;5094427;28;19908;-79
2022/08/11 02:08:10;;;;;;;;;;;21.90;76.60;;;;;;5094587;28;19912;-78
2022/08/11 02:13:32;;;;;;;;;;;21.90;77.50;;;;;;5094424;28;20403;-77
2022/08/11 02:16:09;;;;;;;;;;;21.90;77.80;;;;;;5094431;28;19914;-79
2022/08/11 02:24:16;;;;;;;;;;;21.60;79.70;;;;;;5094206;28;19915;-78
2022/08/11 02:27:01;;;;;;;;;;;21.40;81.00;;;;;;5094521;28;19951;-77
2022/08/11 02:29:29;;;;;;;;;;;21.40;81.60;;;;;;5094315;28;20002;-81
2022/08/11 02:34:54;;;;;;;;;;;21.40;82.00;;;;;;5094034;28;19915;-80
2022/08/11 02:37:26;;;;;;;;;;;21.10;83.60;;;;;;5093965;28;19912;-78
2022/08/11 02:40:05;;;;;;;;;;;20.80;86.70;;;;;;5094058;28;19939;-79
2022/08/11 02:42:36;;;;;;;;;;;20.50;91.00;;;;;;5082933;28;19919;-79
2022/08/11 02:45:05;;;;;;;;;;;20.60;90.30;;;;;;5114420;28;19908;-80
2022/08/11 02:47:30;;;;;;;;;;;20.60;90.70;;;;;;5114190;28;20332;-80
2022/08/11 02:50:01;;;;;;;;;;;20.60;90.40;;;;;;5114329;28;19912;-80
2022/08/11 02:52:34;;;;;;;;;;;20.90;88.60;;;;;;5095638;28;20292;-79
2022/08/11 02:55:06;;;;;;;;;;;20.90;87.20;;;;;;5095930;28;19953;-81
2022/08/11 02:57:49;;;;;;;;;;;20.90;87.50;;;;;;5096078;28;19908;-79
2022/08/11 03:00:16;;;;;;;;;;;21.00;86.90;;;;;;5114794;28;20002;-78
2022/08/11 03:02:47;;;;;;;;;;;20.80;87.90;;;;;;5114116;28;19908;-78
2022/08/11 03:05:43;;;;;;;;;;;20.80;88.30;;;;;;5114290;28;19999;-80
2022/08/11 03:08:27;;;;;;;;;;;20.80;88.30;;;;;;5114103;28;19974;-80
2022/08/11 03:16:49;;;;;;;;;;;20.60;90.10;;;;;;5114232;28;20009;-78
2022/08/11 03:19:20;;;;;;;;;;;20.50;89.90;;;;;;5109672;28;19907;-79
2022/08/11 03:22:08;;;;;;;;;;;20.60;89.80;;;;;;5114157;28;19991;-79
2022/08/11 03:24:52;;;;;;;;;;;20.60;89.20;;;;;;5113911;28;19998;-78
2022/08/11 03:27:27;;;;;;;;;;;20.50;90.00;;;;;;5113976;28;19919;-79
2022/08/11 03:30:05;;;;;;;;;;;20.50;89.30;;;;;;5113962;28;19915;-80
2022/08/11 03:36:11;;;;;;;;;;;20.20;91.20;;;;;;5079398;28;19926;-78
2022/08/11 03:39:03;;;;;;;;;;;20.10;91.70;;;;;;5079387;28;19908;-81
2022/08/11 03:41:46;;;;;;;;;;;20.10;91.60;;;;;;5113673;28;19908;-79
2022/08/11 03:44:21;;;;;;;;;;;20.20;91.60;;;;;;5117647;28;19924;-79
2022/08/11 03:47:05;;;;;;;;;;;20.20;91.90;;;;;;5117726;28;19960;-80
2022/08/11 03:49:50;;;;;;;;;;;20.10;92.00;;;;;;5117666;28;19912;-78
2022/08/11 03:52:22;;;;;;;;;;;20.00;91.90;;;;;;5117362;28;19908;-79
2022/08/11 03:54:47;;;;;;;;;;;19.90;92.50;;;;;;5117693;28;19998;-79
2022/08/11 03:57:25;;;;;;;;;;;19.90;92.20;;;;;;5117292;28;19970;-79
2022/08/11 04:00:00;;;;;;;;;;;19.70;92.40;;;;;;5117435;28;20014;-81
2022/08/11 04:02:35;;;;;;;;;;;19.80;92.40;;;;;;5117349;28;19907;-77
2022/08/11 04:05:01;;;;;;;;;;;19.80;92.40;;;;;;5117226;28;19914;-79
2022/08/11 04:07:30;;;;;;;;;;;19.80;92.50;;;;;;5098911;28;20291;-80
2022/08/11 04:10:06;;;;;;;;;;;19.80;92.50;;;;;;5117247;28;20329;-79
2022/08/11 04:12:37;;;;;;;;;;;19.70;92.70;;;;;;5117078;28;19994;-79
2022/08/11 04:18:14;;;;;;;;;;;19.60;92.80;;;;;;5116813;28;19945;-76
2022/08/11 04:20:49;;;;;;;;;;;19.60;93.10;;;;;;5099025;28;20368;-78
2022/08/11 04:23:33;;;;;;;;;;;19.50;94.00;;;;;;5116841;28;19907;-78
2022/08/11 04:26:05;;;;;;;;;;;19.30;97.20;;;;;;5116934;28;20002;-81
2022/08/11 04:28:49;;;;;;;;;;;19.40;97.50;;;;;;5116682;28;19919;-78
2022/08/11 04:31:23;;;;;;;;;;;19.50;96.30;;;;;;5116628;28;20015;-77
2022/08/11 04:34:13;;;;;;;;;;;19.50;95.50;;;;;;5116759;28;20261;-81
2022/08/11 04:39:41;;;;;;;;;;;19.00;96.00;;;;;;5116340;28;19953;-80
2022/08/11 04:45:25;;;;;;;;;;;19.10;95.40;;;;;;5095878;28;19915;-78
2022/08/11 05:02:25;;;;;;;;;;;19.10;95.20;;;;;;5095775;28;19918;-79
2022/08/11 05:07:59;;;;;;;;;;;19.10;96.00;;;;;;5095072;28;19919;-77
2022/08/11 05:10:28;;;;;;;;;;;19.10;96.30;;;;;;5095767;28;20253;-80
2022/08/11 05:35:25;;;;;;;;;;;18.60;99.90;;;;;;5094667;28;20310;-77
2022/08/11 05:57:06;;;;;;;;;;;19.70;99.50;;;;;;5094159;28;19938;-79
2022/08/11 05:59:32;;;;;;;;;;;19.80;99.10;;;;;;5093693;28;19913;-80
2022/08/11 06:02:06;;;;;;;;;;;20.00;98.20;;;;;;5094368;28;19961;-79
2022/08/11 06:04:32;;;;;;;;;;;20.10;97.40;;;;;;5094359;28;20257;-78
2022/08/11 06:07:00;;;;;;;;;;;20.10;96.70;;;;;;5094647;28;19915;-79
2022/08/11 06:09:25;;;;;;;;;;;20.10;96.80;;;;;;5094357;28;20280;-79
2022/08/11 06:11:51;;;;;;;;;;;20.30;96.60;;;;;;5094163;28;19908;-83
2022/08/11 06:14:18;;;;;;;;;;;20.40;96.40;;;;;;5094084;28;20379;-79
2022/08/11 06:16:46;;;;;;;;;;;20.40;96.30;;;;;;5094079;28;19908;-82
2022/08/11 06:19:13;;;;;;;;;;;20.30;97.30;;;;;;5094582;28;19939;-81
2022/08/11 06:21:42;;;;;;;;;;;20.30;97.90;;;;;;5094128;28;19939;-80
2022/08/11 06:24:12;;;;;;;;;;;20.60;97.40;;;;;;5093921;28;19908;-79
2022/08/11 06:26:39;;;;;;;;;;;20.70;97.00;;;;;;5093907;28;19942;-80
2022/08/11 06:29:05;;;;;;;;;;;20.70;97.80;;;;;;5093811;28;19913;-77
2022/08/11 06:31:31;;;;;;;;;;;20.80;97.10;;;;;;5094092;28;19908;-81
2022/08/11 06:34:23;;;;;;;;;;;20.90;96.90;;;;;;5093785;28;20435;-80
2022/08/11 06:37:01;;;;;;;;;;;21.10;96.60;;;;;;5093818;28;19981;-81
2022/08/11 06:39:31;;;;;;;;;;;21.10;96.50;;;;;;5093753;28;19908;-78
2022/08/11 06:42:05;;;;;;;;;;;21.20;96.60;;;;;;5093637;28;19919;-78
2022/08/11 06:44:38;;;;;;;;;;;21.30;96.90;;;;;;5093750;28;19943;-81
2022/08/11 06:47:06;;;;;;;;;;;21.40;96.50;;;;;;5093886;28;20016;-77
2022/08/11 06:52:18;;;;;;;;;;;21.70;96.40;;;;;;5093777;28;20020;-78
2022/08/11 06:54:49;;;;;;;;;;;21.70;96.30;;;;;;5093662;28;19908;-78
2022/08/11 07:00:26;;;;;;;;;;;22.00;95.60;;;;;;5093437;28;19916;-81
2022/08/11 07:02:55;;;;;;;;;;;22.70;94.70;;;;;;5093634;28;19937;-77
2022/08/11 07:05:26;;;;;;;;;;;25.00;88.40;;;;;;5075420;28;19959;-78
2022/08/11 07:16:22;;;;;;;;;;;28.80;70.80;;;;;;5097391;28;19915;-79
2022/08/11 07:29:52;;;;;;;;;;;28.90;70.20;;;;;;5097673;28;19958;-80
2022/08/11 07:32:25;;;;;;;;;;;28.70;68.00;;;;;;5097203;28;19919;-78
2022/08/11 07:34:55;;;;;;;;;;;28.80;67.30;;;;;;5097372;28;19943;-81
2022/08/11 07:37:23;;;;;;;;;;;29.00;67.40;;;;;;5097069;28;19908;-83
2022/08/11 07:39:49;;;;;;;;;;;28.90;66.70;;;;;;5097072;28;20379;-83
2022/08/11 07:42:17;;;;;;;;;;;29.20;67.30;;;;;;5097006;28;19920;-80
2022/08/11 07:52:58;;;;;;;;;;;30.00;63.10;;;;;;5096829;28;19935;-81
2022/08/11 07:55:24;;;;;;;;;;;30.20;63.40;;;;;;5096911;28;19908;-79
2022/08/11 08:19:47;;;;;;;;;;;33.10;53.80;;;;;;5096758;28;19915;-79
2022/08/11 08:22:16;;;;;;;;;;;33.20;51.50;;;;;;5095637;28;19958;-81
2022/08/11 08:24:42;;;;;;;;;;;33.50;50.40;;;;;;5096520;28;20413;-81
2022/08/11 08:27:11;;;;;;;;;;;33.70;49.00;;;;;;5096070;28;19912;-83
2022/08/11 08:32:22;;;;;;;;;;;34.40;47.20;;;;;;5096726;28;19958;-83
2022/08/11 08:34:51;;;;;;;;;;;34.90;45.80;;;;;;5096036;28;19912;-78
2022/08/11 08:37:18;;;;;;;;;;;35.40;45.20;;;;;;5096327;28;20345;-81
2022/08/11 08:39:45;;;;;;;;;;;35.80;44.70;;;;;;5095910;28;19915;-82
2022/08/11 08:42:12;;;;;;;;;;;36.10;42.30;;;;;;5095724;28;19920;-81
2022/08/11 08:44:40;;;;;;;;;;;36.50;41.20;;;;;;5095811;28;19912;-78
2022/08/11 08:47:08;;;;;;;;;;;36.80;40.40;;;;;;5095765;28;19914;-81
2022/08/11 08:49:36;;;;;;;;;;;37.30;40.10;;;;;;5095954;28;19915;-81
2022/08/11 08:52:03;;;;;;;;;;;38.00;39.60;;;;;;5095676;28;19989;-80
2022/08/11 08:54:35;;;;;;;;;;;38.40;38.30;;;;;;5095704;28;19908;-79
2022/08/11 08:57:04;;;;;;;;;;;38.60;38.00;;;;;;5095770;28;19915;-82
2022/08/11 08:59:31;;;;;;;;;;;38.80;37.60;;;;;;5095692;28;19959;-81
2022/08/11 09:01:57;;;;;;;;;;;38.90;37.00;;;;;;5095780;28;20004;-81
2022/08/11 09:04:24;;;;;;;;;;;39.40;36.80;;;;;;5095453;28;19909;-82
2022/08/11 09:06:50;;;;;;;;;;;39.90;36.00;;;;;;5095607;28;19908;-80
2022/08/11 09:09:16;;;;;;;;;;;40.10;35.70;;;;;;5095340;28;20326;-83
2022/08/11 09:11:54;;;;;;;;;;;40.60;35.40;;;;;;5094965;28;20082;-79
2022/08/11 09:14:59;;;;;;;;;;;41.20;35.40;;;;;;5095562;28;20318;-83
2022/08/11 09:17:10;;;;;;;;;;;41.40;34.80;;;;;;5094937;28;19908;-83
2022/08/11 09:19:36;;;;;;;;;;;42.10;34.70;;;;;;5096233;28;20332;-80
2022/08/11 09:27:31;;;;;;;;;;;42.50;33.90;;;;;;5095282;28;19961;-82
2022/08/11 09:29:57;;;;;;;;;;;42.50;33.40;;;;;;5076713;28;19912;-84
2022/08/11 09:32:23;;;;;;;;;;;42.70;33.50;;;;;;5094931;28;19908;-85
2022/08/11 09:34:50;;;;;;;;;;;43.10;33.30;;;;;;5094017;28;19915;-83
2022/08/11 09:40:34;;;;;;;;;;;43.90;33.00;;;;;;5094739;28;20390;-78
2022/08/11 09:45:38;;;;;;;;;;;44.40;31.50;;;;;;5094462;28;20003;-80
2022/08/11 09:48:04;;;;;;;;;;;44.80;31.80;;;;;;5094458;28;20358;-82
2022/08/11 09:50:33;;;;;;;;;;;44.50;31.70;;;;;;5094527;28;19916;-83
2022/08/11 09:53:00;;;;;;;;;;;45.60;32.00;;;;;;5094503;28;19914;-83
2022/08/11 09:55:26;;;;;;;;;;;46.20;31.50;;;;;;5094459;28;19915;-79
2022/08/11 10:00:39;;;;;;;;;;;48.00;30.50;;;;;;5094413;28;19954;-79
2022/08/11 10:03:23;;;;;;;;;;;48.00;29.70;;;;;;5094512;28;19912;-82
2022/08/11 10:08:55;;;;;;;;;;;49.30;29.20;;;;;;5032110;28;20377;-79
2022/08/11 10:11:22;;;;;;;;;;;50.20;29.50;;;;;;5032010;28;19909;-81
2022/08/11 10:16:36;;;;;;;;;;;53.00;29.70;;;;;;5094109;28;19970;-81
2022/08/11 10:19:02;;;;;;;;;;;53.90;29.40;;;;;;5094376;28;20261;-81
2022/08/11 10:21:28;;;;;;;;;;;52.70;28.80;;;;;;5094760;28;19965;-81
2022/08/11 10:35:12;;;;;;;;;;;52.30;28.60;;;;;;5093835;28;20387;-81
2022/08/11 10:37:38;;;;;;;;;;;52.20;28.50;;;;;;5093765;28;19916;-81
2022/08/11 10:40:05;;;;;;;;;;;51.60;28.30;;;;;;5094044;28;19908;-80
2022/08/11 10:48:04;;;;;;;;;;;51.70;28.70;;;;;;5076098;28;19915;-80
2022/08/11 10:58:47;;;;;;;;;;;51.60;28.90;;;;;;5074224;28;19919;-79
2022/08/11 11:01:14;;;;;;;;;;;52.00;28.70;;;;;;5079695;28;19908;-81
2022/08/11 11:03:40;;;;;;;;;;;51.90;28.50;;;;;;5084842;28;19955;-81
2022/08/11 11:06:07;;;;;;;;;;;51.50;28.60;;;;;;5066616;28;20289;-84
2022/08/11 11:08:54;;;;;;;;;;;51.30;28.60;;;;;;5081288;28;19911;-82
2022/08/11 11:11:21;;;;;;;;;;;51.20;28.70;;;;;;5068747;28;19973;-80
2022/08/11 11:19:21;;;;;;;;;;;51.60;28.80;;;;;;5079992;28;19920;-81
2022/08/11 11:21:50;;;;;;;;;;;51.40;28.60;;;;;;5085164;28;19949;-81
2022/08/11 11:24:40;;;;;;;;;;;50.40;29.20;;;;;;5081231;28;19909;-85
2022/08/11 11:27:13;;;;;;;;;;;49.80;29.00;;;;;;5083455;28;19908;-82
2022/08/11 11:29:45;;;;;;;;;;;49.70;29.30;;;;;;5081041;28;20283;-83
2022/08/11 11:32:29;;;;;;;;;;;50.60;28.90;;;;;;5081197;28;19912;-84
2022/08/11 11:35:04;;;;;;;;;;;49.90;28.90;;;;;;5073345;28;19916;-85
2022/08/11 11:37:32;;;;;;;;;;;49.50;29.10;;;;;;5074069;28;19927;-81
2022/08/11 11:39:58;;;;;;;;;;;50.10;29.30;;;;;;5074099;28;19935;-83
2022/08/11 11:42:24;;;;;;;;;;;50.40;29.20;;;;;;5073422;28;19926;-84
2022/08/11 11:44:50;;;;;;;;;;;51.00;29.50;;;;;;5073713;28;20326;-83
2022/08/11 11:47:18;;;;;;;;;;;52.10;29.10;;;;;;5072738;28;19932;-82
2022/08/11 11:49:44;;;;;;;;;;;50.60;28.90;;;;;;5073686;28;19916;-81
2022/08/11 11:52:16;;;;;;;;;;;49.90;29.00;;;;;;5074030;28;19908;-83
2022/08/11 11:54:41;;;;;;;;;;;50.30;29.20;;;;;;5073392;28;19923;-81
2022/08/11 12:02:38;;;;;;;;;;;49.40;28.90;;;;;;5075299;28;20024;-81
2022/08/11 12:05:04;;;;;;;;;;;49.70;28.40;;;;;;5075576;28;19947;-83
2022/08/11 12:10:15;;;;;;;;;;;50.80;28.40;;;;;;5075324;28;20294;-83
2022/08/11 12:15:25;;;;;;;;;;;51.90;28.00;;;;;;5077061;28;19915;-81
2022/08/11 12:17:51;;;;;;;;;;;52.30;27.90;;;;;;5077022;28;19913;-81
2022/08/11 12:20:20;;;;;;;;;;;52.60;28.00;;;;;;5077359;28;19915;-81
2022/08/11 12:28:15;;;;;;;;;;;51.30;27.80;;;;;;5076382;28;19915;-82
2022/08/11 12:30:41;;;;;;;;;;;52.60;27.90;;;;;;5076577;28;19995;-82
2022/08/11 12:33:07;;;;;;;;;;;54.40;27.90;;;;;;5076451;28;19909;-82
2022/08/11 12:35:34;;;;;;;;;;;53.90;27.70;;;;;;5076407;28;19915;-84
2022/08/11 12:38:01;;;;;;;;;;;54.40;27.70;;;;;;5076311;28;19919;-83
2022/08/11 12:46:00;;;;;;;;;;;54.30;27.40;;;;;;5076408;28;19915;-82
2022/08/11 12:54:17;;;;;;;;;;;53.80;27.60;;;;;;5076016;28;19915;-84
2022/08/11 13:05:03;;;;;;;;;;;52.90;27.30;;;;;;5075427;28;20004;-83
2022/08/11 13:07:30;;;;;;;;;;;53.10;27.60;;;;;;5075391;28;19908;-81
2022/08/11 13:09:56;;;;;;;;;;;53.90;27.70;;;;;;5075454;28;20014;-84
2022/08/11 13:15:08;;;;;;;;;;;52.80;27.40;;;;;;5075441;28;20379;-83
2022/08/11 13:17:33;;;;;;;;;;;52.80;27.70;;;;;;5075789;28;19919;-82
2022/08/11 13:20:01;;;;;;;;;;;53.30;27.60;;;;;;5074997;28;19909;-84
2022/08/11 13:22:28;;;;;;;;;;;53.70;27.60;;;;;;5076288;28;19959;-84
2022/08/11 13:24:54;;;;;;;;;;;53.30;27.80;;;;;;5075114;28;20008;-84
2022/08/11 13:27:20;;;;;;;;;;;53.00;27.50;;;;;;5075349;28;20412;-84
2022/08/11 13:29:46;;;;;;;;;;;53.70;27.90;;;;;;5075277;28;19908;-83
2022/08/11 13:32:12;;;;;;;;;;;53.00;27.60;;;;;;5075206;28;20426;-81
2022/08/11 13:34:41;;;;;;;;;;;51.90;27.60;;;;;;5075334;28;19912;-84
2022/08/11 13:37:07;;;;;;;;;;;52.50;27.70;;;;;;5075418;28;19908;-83
2022/08/11 13:39:34;;;;;;;;;;;51.40;27.40;;;;;;5075084;28;19916;-84
2022/08/11 13:42:01;;;;;;;;;;;50.90;27.60;;;;;;5074967;28;19932;-80
2022/08/11 13:44:28;;;;;;;;;;;50.40;27.30;;;;;;5075052;28;19991;-83
2022/08/11 13:46:59;;;;;;;;;;;49.90;27.70;;;;;;5075372;28;19912;-80
2022/08/11 13:49:26;;;;;;;;;;;49.90;27.70;;;;;;5075387;28;19908;-84
2022/08/11 13:51:53;;;;;;;;;;;49.10;27.80;;;;;;5075215;28;19912;-81
2022/08/11 13:54:20;;;;;;;;;;;48.70;28.10;;;;;;5074952;28;19909;-82
2022/08/11 13:56:47;;;;;;;;;;;47.90;28.30;;;;;;5074986;28;20307;-81
2022/08/11 13:59:13;;;;;;;;;;;47.80;28.20;;;;;;5074765;28;19944;-83
2022/08/11 14:01:51;;;;;;;;;;;47.10;28.30;;;;;;5074700;28;19915;-81
2022/08/11 14:04:38;;;;;;;;;;;46.90;28.20;;;;;;5074642;28;19909;-80
2022/08/11 14:07:05;;;;;;;;;;;46.30;28.40;;;;;;5074608;28;19909;-83
2022/08/11 14:09:33;;;;;;;;;;;45.60;28.40;;;;;;5074401;28;19908;-79
2022/08/11 14:14:48;;;;;;;;;;;45.50;28.70;;;;;;5074125;28;19970;-81
2022/08/11 14:17:16;;;;;;;;;;;45.70;28.80;;;;;;5074320;28;19915;-80
2022/08/11 14:19:43;;;;;;;;;;;45.30;28.90;;;;;;5073760;28;19908;-81
2022/08/11 14:22:10;;;;;;;;;;;44.80;29.10;;;;;;5074767;28;19977;-84
2022/08/11 14:24:40;;;;;;;;;;;44.60;29.50;;;;;;5074029;28;19932;-82
2022/08/11 14:27:07;;;;;;;;;;;44.80;29.20;;;;;;5074115;28;19909;-82
2022/08/11 14:29:37;;;;;;;;;;;44.30;29.30;;;;;;5074061;28;19916;-80
2022/08/11 14:32:04;;;;;;;;;;;44.40;29.50;;;;;;5073922;28;20276;-84
2022/08/11 14:34:31;;;;;;;;;;;44.00;29.50;;;;;;5073933;28;19995;-81
2022/08/11 14:37:01;;;;;;;;;;;43.90;29.50;;;;;;5056003;28;19932;-82
2022/08/11 14:39:47;;;;;;;;;;;43.70;29.50;;;;;;5073963;28;19913;-82
2022/08/11 14:47:47;;;;;;;;;;;43.50;29.70;;;;;;5073731;28;19916;-81
2022/08/11 14:50:14;;;;;;;;;;;43.70;29.80;;;;;;5055748;28;20308;-80
2022/08/11 14:52:43;;;;;;;;;;;43.80;29.80;;;;;;5073531;28;19920;-80
2022/08/11 14:57:55;;;;;;;;;;;43.10;29.70;;;;;;5073632;28;19919;-81
2022/08/11 15:00:20;;;;;;;;;;;42.10;29.80;;;;;;5073767;28;19916;-82
2022/08/11 15:05:32;;;;;;;;;;;41.90;30.00;;;;;;5073592;28;20058;-82
2022/08/11 15:07:58;;;;;;;;;;;41.80;30.10;;;;;;5073391;28;19952;-83
2022/08/11 15:10:24;;;;;;;;;;;41.50;30.00;;;;;;5073851;28;19935;-84
2022/08/11 15:12:51;;;;;;;;;;;41.90;30.20;;;;;;5073242;28;19915;-83
2022/08/11 15:18:04;;;;;;;;;;;42.30;30.40;;;;;;5073579;28;19919;-80
2022/08/11 15:37:24;;;;;;;;;;;41.70;30.00;;;;;;5073330;28;20417;-81
2022/08/11 15:37:30;;;;;;;;;;;41.90;30.00;;;;;;5076576;28;19927;-82
2022/08/11 15:45:48;;;;;;;;;;;42.10;29.60;;;;;;5076757;28;19915;-80
2022/08/11 15:48:15;;;;;;;;;;;42.50;29.50;;;;;;5076830;28;19916;-81
2022/08/11 15:50:45;;;;;;;;;;;42.90;29.60;;;;;;5077193;28;19908;-81
2022/08/11 15:53:33;;;;;;;;;;;43.10;29.40;;;;;;5076603;28;19915;-81
2022/08/11 15:56:00;;;;;;;;;;;43.10;29.70;;;;;;5063079;28;20257;-80
2022/08/11 16:04:12;;;;;;;;;;;44.60;29.40;;;;;;5076394;28;19915;-80
2022/08/11 16:06:50;;;;;;;;;;;44.70;29.40;;;;;;5058128;28;19912;-79
2022/08/11 16:09:18;;;;;;;;;;;44.90;29.60;;;;;;5076562;28;19915;-81
2022/08/11 16:11:44;;;;;;;;;;;44.90;29.20;;;;;;5076245;28;20319;-80
2022/08/11 16:16:56;;;;;;;;;;;45.60;29.00;;;;;;5075968;28;19932;-81
2022/08/11 16:19:24;;;;;;;;;;;45.70;28.80;;;;;;5076193;28;19912;-82
2022/08/11 16:21:51;;;;;;;;;;;45.40;29.20;;;;;;5076901;28;19912;-79
2022/08/11 16:24:18;;;;;;;;;;;45.90;29.10;;;;;;5076038;28;19913;-81
2022/08/11 16:26:45;;;;;;;;;;;46.30;29.30;;;;;;5076064;28;20373;-82
2022/08/11 16:29:11;;;;;;;;;;;46.10;29.20;;;;;;5075900;28;19913;-82
2022/08/11 16:31:37;;;;;;;;;;;45.60;29.20;;;;;;5075901;28;20002;-81
2022/08/11 16:34:03;;;;;;;;;;;45.70;29.10;;;;;;5075852;28;19915;-82
2022/08/11 16:39:17;;;;;;;;;;;45.50;29.20;;;;;;5075507;28;19919;-80
2022/08/11 16:47:14;;;;;;;;;;;40.10;30.20;;;;;;5075671;28;19962;-80
2022/08/11 16:49:46;;;;;;;;;;;38.70;31.20;;;;;;5075451;28;20332;-79
2022/08/11 16:52:12;;;;;;;;;;;38.30;31.80;;;;;;5075586;28;19908;-82
2022/08/11 16:54:39;;;;;;;;;;;38.50;31.80;;;;;;5075561;28;20420;-79
2022/08/11 16:59:53;;;;;;;;;;;37.50;32.00;;;;;;5075199;28;19965;-79
2022/08/11 17:13:07;;;;;;;;;;;37.30;31.90;;;;;;5075255;28;19909;-78
2022/08/11 17:13:33;;;;;;;;;;;36.80;32.70;;;;;;5075249;28;19915;-78
2022/08/11 17:16:07;;;;;;;;;;;36.70;32.90;;;;;;5075244;28;19916;-79
2022/08/11 17:18:55;;;;;;;;;;;36.40;32.80;;;;;;5075635;28;20029;-79
2022/08/11 17:21:28;;;;;;;;;;;36.30;33.10;;;;;;5074919;28;20280;-79
2022/08/11 17:24:14;;;;;;;;;;;36.30;33.30;;;;;;5074475;28;19981;-79
2022/08/11 17:26:56;;;;;;;;;;;36.40;33.30;;;;;;5073076;28;19914;-81
2022/08/11 17:29:39;;;;;;;;;;;36.30;33.20;;;;;;5075391;28;19970;-83
2022/08/11 17:37:56;;;;;;;;;;;35.80;32.90;;;;;;5074939;28;19909;-82
2022/08/11 17:40:23;;;;;;;;;;;35.80;33.30;;;;;;5074992;28;19908;-80
2022/08/11 17:48:24;;;;;;;;;;;35.60;33.10;;;;;;5074166;28;20011;-84
2022/08/11 17:50:55;;;;;;;;;;;35.60;33.70;;;;;;5074628;28;19909;-81
2022/08/11 18:01:44;;;;;;;;;;;35.30;33.70;;;;;;5074217;28;20050;-80
2022/08/11 18:04:12;;;;;;;;;;;35.10;33.90;;;;;;5074489;28;19912;-81
2022/08/11 18:06:39;;;;;;;;;;;35.00;34.00;;;;;;5074088;28;19915;-81
